In Rescue
 
Open Full Screen Window  High Contrast Mode
Wind Gusting 00 knots
07
November 29, 2022 10:21 AM EST
Weather Information
Wind Direction
  140 °
Wind Speed
  07 kt (8 mph)
Wind Gust
  00 kt (0 mph)
Altimeter
29.85 in
Visibility
10 SM
Temperature
07° C
45° F
Dewpoint
03° C
37° F
Humidity
76%
Sky Condition
Overcast @ 1,900 ft
MVFR

METAR KFFX 291521Z AUTO 14007KT 10SM OVC019 07/03 A2985 RMK AO2 T00690028

FAA Disclaimer: The data displayed is for advisory purposes only and is not to be used for flight planning or operations.